createdAt,value
2019-05-18T00:00:26.924Z,22.57
2019-05-18T00:02:54.908Z,24.30
2019-05-18T00:05:23.000Z,23.30
2019-05-18T00:07:51.007Z,24.13
2019-05-18T00:10:19.542Z,25.03
2019-05-18T00:12:47.499Z,24.63
2019-05-18T00:15:15.576Z,24.27
2019-05-18T00:17:43.404Z,23.60
2019-05-18T00:20:11.742Z,24.03
2019-05-18T00:22:39.619Z,22.90
2019-05-18T00:25:09.502Z,21.50
2019-05-18T00:27:37.486Z,21.97
2019-05-18T00:30:06.084Z,22.30
2019-05-18T00:32:33.997Z,21.60
2019-05-18T00:35:03.898Z,22.07
2019-05-18T00:37:31.910Z,24.93
2019-05-18T00:40:00.528Z,28.83
2019-05-18T00:42:28.375Z,26.33
2019-05-18T00:44:57.418Z,24.47
2019-05-18T00:47:40.054Z,21.67
2019-05-18T00:49:54.940Z,24.83
2019-05-18T00:52:23.025Z,22.23
2019-05-18T00:54:51.059Z,22.60
2019-05-18T00:57:19.182Z,22.60
2019-05-18T00:59:47.434Z,21.13
2019-05-18T01:02:15.378Z,25.20
2019-05-18T01:04:43.176Z,25.93
2019-05-18T01:07:11.061Z,23.23
2019-05-18T01:09:39.615Z,24.70
2019-05-18T01:12:07.539Z,25.27
2019-05-18T01:14:35.332Z,24.13
2019-05-18T01:17:03.590Z,24.73
2019-05-18T01:19:31.594Z,23.90
2019-05-18T01:21:59.665Z,23.20
2019-05-18T01:24:27.744Z,22.30
2019-05-18T01:26:55.732Z,24.73
2019-05-18T01:29:24.915Z,24.33
2019-05-18T01:31:53.024Z,22.47
2019-05-18T01:34:21.157Z,24.40
2019-05-18T01:36:49.147Z,25.93
2019-05-18T01:39:17.021Z,25.67
2019-05-18T01:41:44.980Z,27.00
2019-05-18T01:44:13.280Z,26.77
2019-05-18T01:46:43.652Z,24.70
2019-05-18T01:49:15.721Z,23.97
2019-05-18T01:51:44.051Z,21.20
2019-05-18T01:54:11.941Z,19.80
2019-05-18T01:56:39.984Z,21.73
2019-05-18T01:59:07.913Z,26.80
2019-05-18T02:01:35.893Z,25.93
2019-05-18T02:04:04.414Z,24.80
2019-05-18T02:06:32.197Z,22.57
2019-05-18T02:09:00.185Z,28.77
2019-05-18T02:11:28.154Z,26.13
2019-05-18T02:13:56.112Z,24.73
2019-05-18T02:16:25.661Z,22.13
2019-05-18T02:18:55.400Z,24.00
2019-05-18T02:21:23.287Z,23.20
2019-05-18T02:23:51.207Z,23.43
2019-05-18T02:26:18.998Z,21.23
2019-05-18T02:28:51.555Z,22.67
2019-05-18T02:31:22.241Z,23.23
2019-05-18T02:33:50.382Z,24.23
2019-05-18T02:36:18.734Z,25.27
2019-05-18T02:38:47.105Z,23.23
2019-05-18T02:41:16.448Z,24.00
2019-05-18T02:43:44.800Z,25.10
2019-05-18T02:46:13.218Z,24.20
2019-05-18T02:48:49.727Z,26.00
2019-05-18T02:51:12.052Z,23.93
2019-05-18T02:53:49.978Z,27.63
2019-05-18T02:56:19.812Z,30.33
2019-05-18T02:58:47.629Z,28.80
2019-05-18T03:01:17.264Z,30.10
2019-05-18T03:03:45.327Z,30.00
2019-05-18T03:06:13.999Z,29.87
2019-05-18T03:08:51.628Z,28.90
2019-05-18T03:11:19.702Z,29.30
2019-05-18T03:13:47.733Z,28.37
2019-05-18T03:16:15.698Z,30.73
2019-05-18T03:18:43.712Z,30.67
2019-05-18T03:21:11.949Z,30.00
2019-05-18T03:23:39.706Z,28.17
2019-05-18T03:26:07.698Z,31.13
2019-05-18T03:28:36.037Z,30.60
2019-05-18T03:31:03.983Z,30.53
2019-05-18T03:33:32.241Z,29.03
2019-05-18T03:36:01.530Z,31.60
2019-05-18T03:38:29.985Z,31.20
2019-05-18T03:40:57.989Z,33.17
2019-05-18T03:43:26.023Z,32.83
2019-05-18T03:45:54.543Z,31.30
2019-05-18T03:48:22.518Z,30.40
2019-05-18T03:50:50.380Z,31.37
2019-05-18T03:53:18.603Z,31.77
2019-05-18T03:55:46.553Z,31.63
2019-05-18T03:58:14.843Z,29.60
2019-05-18T04:00:43.411Z,30.57
2019-05-18T04:03:11.511Z,30.53
2019-05-18T04:05:39.797Z,32.60
2019-05-18T04:08:07.722Z,30.30
2019-05-18T04:10:35.653Z,30.50
2019-05-18T04:13:03.496Z,29.27
2019-05-18T04:15:31.289Z,30.07
2019-05-18T04:17:59.137Z,26.60
2019-05-18T04:20:28.305Z,27.70
2019-05-18T04:22:56.217Z,28.40
2019-05-18T04:25:24.046Z,30.87
2019-05-18T04:27:51.949Z,35.47
2019-05-18T04:30:20.067Z,38.13
2019-05-18T04:32:50.275Z,38.37
2019-05-18T04:35:20.889Z,34.77
2019-05-18T04:37:48.959Z,34.87
2019-05-18T04:40:37.853Z,36.50
2019-05-18T04:43:12.347Z,38.20
2019-05-18T04:45:44.151Z,35.70
2019-05-18T04:48:27.030Z,33.90
2019-05-18T04:50:56.472Z,30.70
2019-05-18T04:53:26.401Z,26.93
2019-05-18T04:55:54.087Z,23.33
2019-05-18T04:58:22.048Z,23.97
2019-05-18T05:00:49.812Z,22.13
2019-05-18T05:03:17.562Z,22.63
2019-05-18T05:05:55.836Z,18.97
2019-05-18T05:08:24.416Z,20.60
2019-05-18T05:10:52.070Z,20.93
2019-05-18T05:13:20.382Z,18.20
2019-05-18T05:15:54.105Z,15.13
2019-05-18T05:18:21.700Z,15.13
2019-05-18T05:20:49.310Z,13.43
2019-05-18T05:23:17.184Z,13.13
2019-05-18T05:25:44.984Z,13.57
2019-05-18T05:28:12.714Z,13.77
2019-05-18T05:30:40.810Z,13.53
2019-05-18T05:33:12.282Z,13.53
2019-05-18T05:35:42.778Z,14.13
2019-05-18T05:38:10.750Z,14.07
2019-05-18T05:40:38.875Z,14.60
2019-05-18T05:43:06.661Z,14.03
2019-05-18T05:45:34.601Z,14.87
2019-05-18T05:48:03.325Z,14.63
2019-05-18T05:50:36.329Z,13.97
2019-05-18T05:53:03.809Z,15.23
2019-05-18T05:55:31.711Z,16.43
2019-05-18T05:57:59.478Z,17.00
2019-05-18T06:00:29.885Z,13.90
2019-05-18T06:02:59.317Z,14.10
2019-05-18T06:05:37.267Z,14.67
2019-05-18T06:07:59.705Z,13.93
2019-05-18T06:10:27.498Z,15.60
2019-05-18T06:12:55.266Z,17.23
2019-05-18T06:15:23.098Z,16.30
2019-05-18T06:17:51.186Z,15.77
2019-05-18T06:20:18.917Z,16.47
2019-05-18T06:22:46.627Z,16.63
2019-05-18T06:25:15.166Z,17.23
2019-05-18T06:27:42.900Z,16.27
2019-05-18T06:30:10.802Z,17.17
2019-05-18T06:32:38.786Z,16.73
2019-05-18T06:35:07.117Z,18.23
2019-05-18T06:37:35.002Z,17.07
2019-05-18T06:40:02.977Z,16.90
2019-05-18T06:42:32.693Z,18.30
2019-05-18T06:45:09.307Z,17.13
2019-05-18T06:47:36.955Z,17.43
2019-05-18T06:50:04.588Z,17.47
2019-05-18T06:52:32.537Z,17.87
2019-05-18T06:55:00.801Z,18.67
2019-05-18T06:57:29.748Z,17.40
2019-05-18T06:59:58.569Z,19.53
2019-05-18T07:02:26.295Z,18.23
2019-05-18T07:04:53.935Z,17.80
2019-05-18T07:07:21.672Z,19.07
2019-05-18T07:09:49.506Z,18.03
2019-05-18T07:12:17.152Z,17.87
2019-05-18T07:14:44.841Z,18.57
2019-05-18T07:17:12.869Z,18.43
2019-05-18T07:19:40.580Z,18.67
2019-05-18T07:22:08.273Z,18.23
2019-05-18T07:24:35.946Z,18.57
2019-05-18T07:27:04.023Z,19.27
2019-05-18T07:29:31.753Z,19.23
2019-05-18T07:31:59.845Z,21.23
2019-05-18T07:34:27.663Z,21.37
2019-05-18T07:36:55.911Z,20.33
2019-05-18T07:39:23.849Z,21.83
2019-05-18T07:41:51.512Z,21.17
2019-05-18T07:44:19.285Z,22.43
2019-05-18T07:46:47.463Z,23.00
2019-05-18T07:49:15.186Z,24.00
2019-05-18T07:51:42.849Z,23.00
2019-05-18T07:54:10.565Z,23.77
2019-05-18T07:56:39.711Z,21.63
2019-05-18T07:59:08.593Z,22.77
2019-05-18T08:01:36.642Z,22.53
2019-05-18T08:04:07.734Z,22.07
2019-05-18T08:06:35.464Z,22.30
2019-05-18T08:09:04.768Z,21.33
2019-05-18T08:11:32.384Z,19.07
2019-05-18T08:14:00.101Z,21.17
2019-05-18T08:16:27.692Z,18.90
2019-05-18T08:18:58.029Z,20.30
2019-05-18T08:21:24.794Z,19.73
2019-05-18T08:23:52.475Z,20.60
2019-05-18T08:26:20.107Z,20.10
2019-05-18T08:28:47.674Z,22.80
2019-05-18T08:31:15.377Z,21.23
2019-05-18T08:33:42.977Z,19.33
2019-05-18T08:36:10.568Z,20.90
2019-05-18T08:38:38.059Z,20.57
2019-05-18T08:41:05.605Z,22.47
2019-05-18T08:43:33.252Z,20.40
2019-05-18T08:46:00.836Z,20.63
2019-05-18T08:48:28.505Z,19.73
2019-05-18T08:50:56.166Z,20.03
2019-05-18T08:53:23.801Z,18.17
2019-05-18T08:55:51.790Z,19.60
2019-05-18T08:58:19.636Z,17.40
2019-05-18T09:00:47.317Z,16.23
2019-05-18T09:03:15.260Z,17.43
2019-05-18T09:05:42.917Z,15.93
2019-05-18T09:08:10.513Z,17.40
2019-05-18T09:10:38.008Z,17.17
2019-05-18T09:13:05.528Z,16.43
2019-05-18T09:15:33.140Z,16.57
2019-05-18T09:18:04.995Z,14.67
2019-05-18T09:20:32.866Z,14.40
2019-05-18T09:23:00.488Z,14.83
2019-05-18T09:25:28.062Z,11.77
2019-05-18T09:27:55.707Z,11.23
2019-05-18T09:30:23.245Z,12.33
2019-05-18T09:32:51.096Z,11.63
2019-05-18T09:35:19.215Z,11.20
2019-05-18T09:37:46.875Z,11.40
2019-05-18T09:40:15.114Z,11.13
2019-05-18T09:42:42.943Z,9.57
2019-05-18T09:45:11.722Z,9.50
2019-05-18T09:47:39.352Z,10.00
2019-05-18T09:50:07.945Z,9.47
2019-05-18T09:52:44.835Z,8.03
2019-05-18T09:55:06.257Z,8.73
2019-05-18T09:57:34.812Z,7.40
2019-05-18T10:00:14.018Z,7.63
2019-05-18T10:02:44.149Z,7.73
2019-05-18T10:05:14.385Z,8.77
2019-05-18T10:07:42.776Z,9.67
2019-05-18T10:10:10.966Z,9.43
2019-05-18T10:12:38.605Z,11.97
2019-05-18T10:15:06.658Z,11.77
2019-05-18T10:17:34.287Z,12.33
2019-05-18T10:20:02.283Z,12.80
2019-05-18T10:22:30.034Z,13.40
2019-05-18T10:24:57.977Z,13.33
2019-05-18T10:27:25.808Z,13.00
2019-05-18T10:29:53.660Z,12.90
2019-05-18T10:32:21.571Z,12.67
2019-05-18T10:34:49.330Z,12.73
2019-05-18T10:37:17.469Z,12.80
2019-05-18T10:39:45.588Z,12.90
2019-05-18T10:42:13.451Z,13.23
2019-05-18T10:44:41.770Z,12.90
2019-05-18T10:47:09.528Z,14.33
2019-05-18T10:49:37.186Z,12.70
2019-05-18T10:52:05.061Z,13.10
2019-05-18T10:54:32.765Z,12.60
2019-05-18T10:57:04.206Z,12.20
2019-05-18T10:59:31.933Z,12.00
2019-05-18T11:01:59.567Z,12.13
2019-05-18T11:04:27.244Z,12.23
2019-05-18T11:07:04.773Z,11.30
2019-05-18T11:09:32.553Z,11.40
2019-05-18T11:12:00.276Z,12.43
2019-05-18T11:14:28.267Z,12.87
2019-05-18T11:16:56.203Z,12.07
2019-05-18T11:19:23.998Z,11.97
2019-05-18T11:21:51.889Z,13.23
2019-05-18T11:24:19.868Z,12.83
2019-05-18T11:26:53.663Z,11.80
2019-05-18T11:29:23.245Z,12.73
2019-05-18T11:31:51.187Z,12.97
2019-05-18T11:34:19.294Z,13.07
2019-05-18T11:36:46.850Z,12.70
2019-05-18T11:39:23.601Z,12.83
2019-05-18T11:41:47.829Z,13.83
2019-05-18T11:44:15.727Z,14.23
2019-05-18T11:46:44.806Z,13.50
2019-05-18T11:49:15.186Z,13.60
2019-05-18T11:51:42.830Z,13.37
2019-05-18T11:54:10.703Z,14.07
2019-05-18T11:56:38.677Z,14.20
2019-05-18T11:59:06.298Z,14.77
2019-05-18T12:01:34.342Z,13.90
2019-05-18T12:04:02.248Z,14.33
2019-05-18T12:06:29.996Z,14.70
2019-05-18T12:08:58.753Z,13.87
2019-05-18T12:11:26.482Z,14.70
2019-05-18T12:13:54.131Z,13.60
2019-05-18T12:16:21.910Z,14.00
2019-05-18T12:18:49.988Z,14.23
2019-05-18T12:21:17.776Z,14.10
2019-05-18T12:23:45.574Z,14.40
2019-05-18T12:26:13.245Z,14.47
2019-05-18T12:28:41.011Z,14.23
2019-05-18T12:31:08.714Z,13.87
2019-05-18T12:33:36.713Z,12.77
2019-05-18T12:36:06.138Z,13.70
2019-05-18T12:38:33.870Z,13.47
2019-05-18T12:41:03.011Z,13.13
2019-05-18T12:43:30.745Z,12.73
2019-05-18T12:45:58.513Z,12.87
2019-05-18T12:48:26.320Z,12.93
2019-05-18T12:50:54.004Z,11.83
2019-05-18T12:53:21.802Z,12.33
2019-05-18T12:55:49.545Z,12.43
2019-05-18T12:58:17.298Z,11.80
2019-05-18T13:00:44.944Z,12.00
2019-05-18T13:03:12.752Z,12.30
2019-05-18T13:05:40.757Z,10.63
2019-05-18T13:08:08.509Z,10.17
2019-05-18T13:10:36.366Z,10.07
2019-05-18T13:13:04.074Z,9.90
2019-05-18T13:15:31.870Z,9.60
2019-05-18T13:17:59.506Z,10.67
2019-05-18T13:20:27.078Z,10.40
2019-05-18T13:22:54.858Z,10.37
2019-05-18T13:25:22.869Z,9.90
2019-05-18T13:27:50.785Z,10.70
2019-05-18T13:30:19.845Z,10.60
2019-05-18T13:32:47.911Z,10.80
2019-05-18T13:35:17.858Z,10.80
2019-05-18T13:37:45.786Z,11.40
2019-05-18T13:40:14.141Z,11.63
2019-05-18T13:42:41.789Z,11.27
2019-05-18T13:45:09.860Z,10.83
2019-05-18T13:47:37.704Z,9.67
2019-05-18T13:50:05.987Z,10.03
2019-05-18T13:52:33.893Z,9.40
2019-05-18T13:55:04.468Z,8.90
2019-05-18T13:57:31.161Z,9.50
2019-05-18T13:59:58.867Z,9.37
2019-05-18T14:02:26.719Z,9.90
2019-05-18T14:04:54.647Z,9.83
2019-05-18T14:07:23.454Z,9.18
2019-05-18T14:09:51.218Z,9.68
2019-05-18T14:12:18.851Z,9.98
2019-05-18T14:14:46.407Z,9.35
2019-05-18T14:17:14.101Z,9.70
2019-05-18T14:19:41.772Z,8.25
2019-05-18T14:22:09.957Z,8.63
2019-05-18T14:24:37.572Z,8.58
2019-05-18T14:27:05.223Z,8.45
2019-05-18T14:29:32.908Z,7.97
2019-05-18T14:32:02.003Z,7.80
2019-05-18T14:34:29.746Z,7.60
2019-05-18T14:36:58.062Z,7.70
2019-05-18T14:39:25.794Z,8.28
2019-05-18T14:41:53.660Z,7.83
2019-05-18T14:44:21.952Z,7.67
2019-05-18T14:46:52.409Z,7.78
2019-05-18T14:49:20.288Z,8.38
2019-05-18T14:51:49.321Z,8.58
2019-05-18T14:54:17.268Z,8.57
2019-05-18T14:56:45.471Z,8.67
2019-05-18T14:59:13.421Z,8.53
2019-05-18T15:01:41.282Z,8.17
2019-05-18T15:04:09.129Z,8.43
2019-05-18T15:06:37.022Z,8.35
2019-05-18T15:09:05.965Z,7.90
2019-05-18T15:11:34.238Z,8.20
2019-05-18T15:14:02.496Z,8.23
2019-05-18T15:16:30.371Z,8.85
2019-05-18T15:19:00.271Z,7.72
2019-05-18T15:21:28.138Z,7.80
2019-05-18T15:23:56.044Z,7.22
2019-05-18T15:26:23.996Z,7.97
2019-05-18T15:28:51.966Z,7.05
2019-05-18T15:31:19.788Z,7.78
2019-05-18T15:33:53.814Z,6.80
2019-05-18T15:36:21.865Z,8.10
2019-05-18T15:38:50.526Z,8.23
2019-05-18T15:41:18.421Z,8.85
2019-05-18T15:43:46.346Z,9.37
2019-05-18T15:46:14.632Z,9.57
2019-05-18T15:48:52.066Z,9.43
2019-05-18T15:51:24.518Z,7.30
2019-05-18T15:54:01.099Z,6.27
2019-05-18T15:56:30.997Z,6.63
2019-05-18T15:58:58.931Z,6.07
2019-05-18T16:01:29.224Z,6.37
2019-05-18T16:03:57.005Z,6.20
2019-05-18T16:06:27.966Z,6.90
2019-05-18T16:09:01.738Z,6.53
2019-05-18T16:11:29.796Z,6.40
2019-05-18T16:13:57.839Z,6.80
2019-05-18T16:16:25.765Z,6.70
2019-05-18T16:18:56.842Z,6.93
2019-05-18T16:21:29.485Z,6.80
2019-05-18T16:23:59.949Z,7.07
2019-05-18T16:26:32.144Z,7.13
2019-05-18T16:29:00.873Z,7.63
2019-05-18T16:31:34.726Z,7.80
2019-05-18T16:34:03.449Z,7.77
2019-05-18T16:36:33.606Z,7.47
2019-05-18T16:39:06.316Z,7.60
2019-05-18T16:41:35.001Z,7.70
2019-05-18T16:44:02.742Z,8.03
2019-05-18T16:46:30.917Z,7.80
2019-05-18T16:48:58.678Z,8.23
2019-05-18T16:51:30.597Z,8.40
2019-05-18T16:54:18.742Z,7.77
2019-05-18T16:56:47.080Z,8.13
2019-05-18T16:59:17.915Z,8.10
2019-05-18T17:01:46.993Z,8.60
2019-05-18T17:04:15.937Z,8.70
2019-05-18T17:06:52.907Z,9.23
2019-05-18T17:09:21.487Z,9.20
2019-05-18T17:11:52.862Z,9.17
2019-05-18T17:16:50.874Z,9.40
2019-05-18T17:19:18.890Z,9.37
2019-05-18T17:22:03.507Z,9.60
2019-05-18T17:24:32.941Z,9.93
2019-05-18T17:27:00.977Z,9.87
2019-05-18T17:29:28.987Z,9.63
2019-05-18T17:31:57.317Z,10.50
2019-05-18T17:34:25.320Z,11.37
2019-05-18T17:36:57.474Z,10.70
2019-05-18T17:39:27.692Z,10.47
2019-05-18T17:41:55.810Z,10.10
2019-05-18T17:44:23.879Z,10.33
2019-05-18T17:46:54.208Z,10.40
2019-05-18T17:49:26.890Z,10.63
2019-05-18T17:52:11.216Z,10.50
2019-05-18T17:54:39.796Z,11.03
2019-05-18T17:57:09.270Z,10.50
2019-05-18T17:59:43.925Z,10.77
2019-05-18T18:02:12.556Z,11.37
2019-05-18T18:04:40.405Z,11.30
2019-05-18T18:07:15.026Z,10.90
2019-05-18T18:09:43.282Z,11.60
2019-05-18T18:12:15.862Z,10.37
2019-05-18T18:14:44.341Z,11.50
2019-05-18T18:17:13.746Z,11.60
2019-05-18T18:19:44.737Z,11.97
2019-05-18T18:22:14.923Z,12.50
2019-05-18T18:24:49.207Z,12.90
2019-05-18T18:27:25.298Z,13.67
2019-05-18T18:29:51.997Z,13.70
2019-05-18T18:32:27.710Z,13.20
2019-05-18T18:34:55.853Z,14.20
2019-05-18T18:37:31.081Z,13.97
2019-05-18T18:40:03.857Z,14.17
2019-05-18T18:42:38.153Z,14.33
2019-05-18T18:45:11.721Z,15.07
2019-05-18T18:47:49.082Z,15.17
2019-05-18T18:50:17.725Z,15.07
2019-05-18T18:52:52.442Z,15.07
2019-05-18T18:55:28.700Z,15.63
2019-05-18T18:58:05.447Z,16.47
2019-05-18T19:00:42.894Z,16.47
2019-05-18T19:03:13.286Z,17.37
2019-05-18T19:05:45.845Z,16.73
2019-05-18T19:08:20.361Z,16.57
2019-05-18T19:10:50.423Z,17.20
2019-05-18T19:13:20.449Z,17.20
2019-05-18T19:15:55.747Z,17.90
2019-05-18T19:18:27.734Z,17.87
2019-05-18T19:20:55.973Z,17.80
2019-05-18T19:23:31.569Z,17.07
2019-05-18T19:25:57.103Z,16.53
2019-05-18T19:28:25.346Z,16.50
2019-05-18T19:30:56.600Z,18.53
2019-05-18T19:33:24.749Z,17.67
2019-05-18T19:35:52.932Z,17.80
2019-05-18T19:38:20.963Z,17.63
2019-05-18T19:40:49.616Z,16.47
2019-05-18T19:43:17.804Z,16.97
2019-05-18T19:45:46.144Z,17.33
2019-05-18T19:48:36.880Z,17.93
2019-05-18T19:51:08.646Z,17.20
2019-05-18T19:53:41.806Z,17.27
2019-05-18T19:56:13.419Z,18.27
2019-05-18T19:58:44.833Z,17.67
2019-05-18T20:01:13.146Z,18.50
2019-05-18T20:03:41.432Z,18.37
2019-05-18T20:06:11.297Z,19.23
2019-05-18T20:08:40.153Z,17.57
2019-05-18T20:11:08.737Z,18.17
2019-05-18T20:13:38.879Z,19.83
2019-05-18T20:16:06.992Z,19.53
2019-05-18T20:18:37.400Z,19.80
2019-05-18T20:21:06.386Z,21.40
2019-05-18T20:23:34.623Z,20.87
2019-05-18T20:26:03.333Z,21.17
2019-05-18T20:28:31.872Z,19.33
2019-05-18T20:31:00.109Z,19.30
2019-05-18T20:33:28.793Z,18.87
2019-05-18T20:35:57.769Z,18.57
2019-05-18T20:38:25.734Z,17.90
2019-05-18T20:40:53.598Z,16.87
2019-05-18T20:43:21.526Z,18.20
2019-05-18T20:45:49.337Z,16.93
2019-05-18T20:48:22.229Z,17.17
2019-05-18T20:50:50.385Z,16.43
2019-05-18T20:53:21.478Z,15.37
2019-05-18T20:55:53.105Z,16.27
2019-05-18T20:58:39.443Z,14.77
2019-05-18T21:01:24.608Z,14.87
2019-05-18T21:03:55.176Z,15.00
2019-05-18T21:06:23.914Z,14.80
2019-05-18T21:08:52.668Z,14.53
2019-05-18T21:11:20.837Z,14.90
2019-05-18T21:14:07.689Z,14.13
2019-05-18T21:16:36.015Z,13.77
2019-05-18T21:19:11.116Z,14.03
2019-05-18T21:21:38.916Z,13.93
2019-05-18T21:24:07.436Z,14.37
2019-05-18T21:26:37.814Z,14.07
2019-05-18T21:29:05.916Z,14.37
2019-05-18T21:31:34.571Z,14.37
2019-05-18T21:34:02.742Z,14.33
2019-05-18T21:36:31.470Z,14.40
2019-05-18T21:38:59.711Z,14.50
2019-05-18T21:41:30.368Z,15.13
2019-05-18T21:44:01.114Z,13.27
2019-05-18T21:46:30.957Z,13.37
2019-05-18T21:48:58.848Z,14.00
2019-05-18T21:51:26.756Z,14.27
2019-05-18T21:53:54.520Z,14.13
2019-05-18T21:56:27.169Z,14.60
2019-05-18T21:59:10.157Z,14.53
2019-05-18T22:01:25.196Z,14.00
2019-05-18T22:04:00.095Z,12.87
2019-05-18T22:07:02.792Z,13.23
2019-05-18T22:09:32.495Z,12.30
2019-05-18T22:14:38.153Z,11.80
2019-05-18T22:17:16.910Z,10.93
2019-05-18T22:20:02.691Z,10.60
2019-05-18T22:22:33.805Z,11.07
2019-05-18T22:25:04.437Z,10.70
2019-05-18T22:32:58.068Z,10.50
2019-05-18T22:35:23.290Z,10.50
2019-05-18T22:37:51.077Z,11.03
2019-05-18T22:40:39.820Z,10.17
2019-05-18T22:43:08.231Z,10.67
2019-05-18T22:45:37.601Z,10.43
2019-05-18T22:48:08.155Z,11.17
2019-05-18T22:50:36.106Z,10.53
2019-05-18T22:53:13.356Z,10.80
2019-05-18T22:55:43.602Z,10.17
2019-05-18T22:58:11.598Z,10.13
2019-05-18T23:00:39.413Z,10.43
2019-05-18T23:03:07.954Z,10.00
2019-05-18T23:05:38.425Z,10.43
2019-05-18T23:11:10.462Z,10.77
2019-05-18T23:13:39.035Z,10.40
2019-05-18T23:16:08.405Z,11.27
2019-05-18T23:18:36.545Z,10.53
2019-05-18T23:21:25.323Z,10.23
2019-05-18T23:23:54.211Z,10.40
2019-05-18T23:26:22.291Z,11.27
2019-05-18T23:28:50.057Z,10.90
2019-05-18T23:31:18.080Z,11.20
2019-05-18T23:33:45.992Z,11.10
2019-05-18T23:36:49.520Z,10.97
2019-05-18T23:39:22.378Z,10.43
2019-05-18T23:41:51.619Z,11.37
2019-05-18T23:44:30.469Z,11.03
2019-05-18T23:47:07.834Z,10.77
2019-05-18T23:49:35.758Z,11.43
2019-05-18T23:52:05.167Z,11.10
2019-05-18T23:54:44.926Z,10.67
2019-05-18T23:57:26.706Z,11.50
